createdAt,value
2018-08-23T00:01:34.416Z,99774.74
2018-08-23T00:04:05.988Z,99776.73
2018-08-23T00:06:36.267Z,99777.47
2018-08-23T00:09:08.537Z,99776.75
2018-08-23T00:11:41.932Z,99780.70
2018-08-23T00:14:11.969Z,99788.42
2018-08-23T00:16:44.829Z,99796.23
2018-08-23T00:19:14.820Z,99797.77
2018-08-23T00:21:47.460Z,99793.83
2018-08-23T00:24:18.438Z,99797.25
2018-08-23T00:26:57.346Z,99795.83
2018-08-23T00:29:34.401Z,99800.98
2018-08-23T00:32:06.059Z,99797.45
2018-08-23T00:34:36.919Z,99797.68
2018-08-23T00:37:07.359Z,99792.08
2018-08-23T00:39:37.203Z,99791.61
2018-08-23T00:42:10.036Z,99795.35
2018-08-23T00:44:59.128Z,99796.98
2018-08-23T00:47:33.219Z,99801.06
2018-08-23T00:50:03.020Z,99797.73
2018-08-23T00:52:43.722Z,99800.38
2018-08-23T00:55:17.900Z,99801.13
2018-08-23T00:57:47.863Z,99796.69
2018-08-23T01:00:19.418Z,99796.55
2018-08-23T01:02:54.516Z,99793.01
2018-08-23T01:05:29.391Z,99800.11
2018-08-23T01:07:59.114Z,99794.91
2018-08-23T01:10:28.842Z,99796.47
2018-08-23T01:13:01.544Z,99796.78
2018-08-23T01:15:32.598Z,99793.48
2018-08-23T01:18:11.968Z,99789.41
2018-08-23T01:20:42.536Z,99786.08
2018-08-23T01:23:12.301Z,99790.69
2018-08-23T01:25:44.577Z,99785.19
2018-08-23T01:28:14.599Z,99785.86
2018-08-23T01:30:44.903Z,99784.98
2018-08-23T01:33:17.934Z,99780.76
2018-08-23T01:35:49.018Z,99782.80
2018-08-23T01:38:19.090Z,99779.49
2018-08-23T01:40:48.938Z,99775.66
2018-08-23T01:43:18.804Z,99773.73
2018-08-23T01:45:48.587Z,99781.52
2018-08-23T01:48:18.265Z,99774.81
2018-08-23T01:50:47.956Z,99773.92
2018-08-23T01:53:19.828Z,99769.06
2018-08-23T01:55:49.551Z,99776.09
2018-08-23T01:58:19.631Z,99778.23
2018-08-23T02:00:59.748Z,99775.20
2018-08-23T02:03:29.535Z,99771.36
2018-08-23T02:05:59.240Z,99770.23
2018-08-23T02:08:29.288Z,99768.51
2018-08-23T02:10:59.013Z,99779.45
2018-08-23T02:13:29.411Z,99771.00
2018-08-23T02:16:02.243Z,99769.02
2018-08-23T02:18:32.556Z,99768.50
2018-08-23T02:21:08.203Z,99769.07
2018-08-23T02:23:46.569Z,99769.02
2018-08-23T02:26:16.304Z,99769.55
2018-08-23T02:28:47.740Z,99767.16
2018-08-23T02:31:17.588Z,99770.38
2018-08-23T02:33:47.328Z,99769.56
2018-08-23T02:36:17.419Z,99765.85
2018-08-23T02:38:49.463Z,99772.34
2018-08-23T02:41:19.179Z,99760.27
2018-08-23T02:43:48.884Z,99761.70
2018-08-23T02:46:19.142Z,99760.66
2018-08-23T02:48:48.861Z,99759.27
2018-08-23T02:51:18.616Z,99752.64
2018-08-23T02:53:49.264Z,99752.91
2018-08-23T02:56:20.889Z,99754.49
2018-08-23T02:58:56.417Z,99757.67
2018-08-23T03:01:27.876Z,99758.86
2018-08-23T03:04:16.871Z,99749.87
2018-08-23T03:06:51.148Z,99746.42
2018-08-23T03:09:22.957Z,99752.09
2018-08-23T03:11:53.857Z,99748.74
2018-08-23T03:14:24.543Z,99740.36
2018-08-23T03:17:30.136Z,99744.72
2018-08-23T03:20:01.379Z,99750.37
2018-08-23T03:22:32.317Z,99746.59
2018-08-23T03:25:03.825Z,99741.81
2018-08-23T03:27:33.609Z,99744.52
2018-08-23T03:30:04.267Z,99735.01
2018-08-23T03:32:33.944Z,99736.67
2018-08-23T03:35:03.648Z,99740.80
2018-08-23T03:37:33.365Z,99732.47
2018-08-23T03:40:03.136Z,99729.98
2018-08-23T03:42:32.876Z,99735.55
2018-08-23T03:45:02.863Z,99741.44
2018-08-23T03:47:38.384Z,99740.14
2018-08-23T03:50:09.336Z,99741.91
2018-08-23T03:52:42.500Z,99746.19
2018-08-23T03:55:12.309Z,99738.74
2018-08-23T03:57:47.092Z,99748.85
2018-08-23T04:00:16.885Z,99750.53
2018-08-23T04:02:46.555Z,99751.56
2018-08-23T04:05:19.228Z,99753.25
2018-08-23T04:07:48.892Z,99744.34
2018-08-23T04:10:18.557Z,99748.73
2018-08-23T04:12:48.268Z,99749.46
2018-08-23T04:15:31.312Z,99745.70
2018-08-23T04:18:06.099Z,99744.08
2018-08-23T04:20:35.932Z,99744.63
2018-08-23T04:23:05.644Z,99742.10
2018-08-23T04:25:35.400Z,99750.72
2018-08-23T04:28:05.117Z,99747.16
2018-08-23T04:30:34.795Z,99744.67
2018-08-23T04:33:04.676Z,99747.06
2018-08-23T04:35:34.476Z,99746.93
2018-08-23T04:38:04.192Z,99743.09
2018-08-23T04:40:33.981Z,99738.09
2018-08-23T04:43:03.824Z,99736.27
2018-08-23T04:45:34.743Z,99743.22
2018-08-23T04:48:06.576Z,99742.23
2018-08-23T04:50:36.943Z,99744.83
2018-08-23T04:53:06.738Z,99747.23
2018-08-23T04:55:36.489Z,99736.90
2018-08-23T04:58:06.860Z,99747.32
2018-08-23T05:00:36.635Z,99741.91
2018-08-23T05:03:06.623Z,99741.86
2018-08-23T05:05:36.687Z,99741.49
2018-08-23T05:08:06.431Z,99741.75
2018-08-23T05:10:36.288Z,99732.66
2018-08-23T05:13:05.989Z,99735.23
2018-08-23T05:15:35.728Z,99728.09
2018-08-23T05:18:05.480Z,99733.23
2018-08-23T05:20:35.464Z,99727.23
2018-08-23T05:23:06.025Z,99726.13
2018-08-23T05:25:35.709Z,99719.87
2018-08-23T05:28:18.376Z,99722.52
2018-08-23T05:30:49.308Z,99722.25
2018-08-23T05:33:22.120Z,99722.59
2018-08-23T05:35:51.791Z,99724.08
2018-08-23T05:38:21.495Z,99726.75
2018-08-23T05:41:18.124Z,99725.00
2018-08-23T05:43:53.404Z,99720.03
2018-08-23T05:46:23.401Z,99717.81
2018-08-23T05:48:53.618Z,99719.94
2018-08-23T05:51:23.803Z,99719.31
2018-08-23T05:53:55.393Z,99711.38
2018-08-23T05:56:25.128Z,99716.49
2018-08-23T05:58:59.428Z,99713.17
2018-08-23T06:01:29.156Z,99708.70
2018-08-23T06:03:58.830Z,99711.42
2018-08-23T06:06:28.871Z,99708.16
2018-08-23T06:09:00.942Z,99706.25
2018-08-23T06:11:30.709Z,99707.84
2018-08-23T06:14:01.465Z,99710.30
2018-08-23T06:16:31.753Z,99714.27
2018-08-23T06:19:07.921Z,99712.67
2018-08-23T06:21:37.670Z,99710.58
2018-08-23T06:24:08.540Z,99710.53
2018-08-23T06:26:46.348Z,99708.95
2018-08-23T06:29:18.495Z,99715.27
2018-08-23T06:31:57.522Z,99714.66
2018-08-23T06:34:28.908Z,99717.90
2018-08-23T06:36:58.627Z,99711.08
2018-08-23T06:39:28.393Z,99709.13
2018-08-23T06:41:59.467Z,99711.34
2018-08-23T06:44:39.351Z,99709.35
2018-08-23T06:47:09.848Z,99708.20
2018-08-23T06:49:39.673Z,99706.03
2018-08-23T06:52:11.706Z,99720.52
2018-08-23T06:54:42.076Z,99711.42
2018-08-23T06:57:12.155Z,99702.50
2018-08-23T06:59:42.300Z,99706.84
2018-08-23T07:02:12.392Z,99700.12
2018-08-23T07:04:42.252Z,99705.06
2018-08-23T07:07:16.929Z,99703.03
2018-08-23T07:09:46.673Z,99703.98
2018-08-23T07:12:21.506Z,99702.51
2018-08-23T07:14:51.768Z,99706.39
2018-08-23T07:17:27.681Z,99703.16
2018-08-23T07:20:00.464Z,99701.19
2018-08-23T07:22:30.635Z,99701.91
2018-08-23T07:25:00.674Z,99706.13
2018-08-23T07:27:30.767Z,99701.74
2018-08-23T07:30:01.058Z,99697.00
2018-08-23T07:32:31.479Z,99702.79
2018-08-23T07:35:06.378Z,99703.03
2018-08-23T07:37:37.257Z,99703.72
2018-08-23T07:40:12.235Z,99702.35
2018-08-23T07:42:43.131Z,99703.05
2018-08-23T07:45:13.180Z,99699.62
2018-08-23T07:47:51.792Z,99704.69
2018-08-23T07:50:22.224Z,99704.06
2018-08-23T07:52:53.321Z,99697.89
2018-08-23T07:55:23.415Z,99702.91
2018-08-23T07:57:53.158Z,99697.58
2018-08-23T08:00:31.692Z,99705.91
2018-08-23T08:03:01.702Z,99706.00
2018-08-23T08:05:33.352Z,99702.98
2018-08-23T08:08:03.321Z,99704.87
2018-08-23T08:10:35.923Z,99705.59
2018-08-23T08:13:06.104Z,99702.94
2018-08-23T08:15:35.811Z,99701.86
2018-08-23T08:18:08.389Z,99695.37
2018-08-23T08:20:38.172Z,99698.52
2018-08-23T08:23:07.904Z,99697.27
2018-08-23T08:25:37.649Z,99701.34
2018-08-23T08:28:14.203Z,99695.36
2018-08-23T08:30:45.470Z,99692.89
2018-08-23T08:33:20.420Z,99691.11
2018-08-23T08:35:51.110Z,99687.91
2018-08-23T08:38:20.812Z,99686.56
2018-08-23T08:40:52.209Z,99680.89
2018-08-23T08:43:21.915Z,99679.84
2018-08-23T08:45:55.839Z,99676.34
2018-08-23T08:48:31.039Z,99676.91
2018-08-23T08:51:21.157Z,99675.88
2018-08-23T08:53:51.211Z,99677.01
2018-08-23T08:56:32.432Z,99676.78
2018-08-23T08:59:02.165Z,99677.03
2018-08-23T09:01:32.170Z,99672.66
2018-08-23T09:04:02.212Z,99674.31
2018-08-23T09:06:50.424Z,99670.72
2018-08-23T09:09:30.027Z,99665.76
2018-08-23T09:12:01.479Z,99660.52
2018-08-23T09:14:31.208Z,99662.22
2018-08-23T09:17:02.704Z,99659.17
2018-08-23T09:19:43.493Z,99651.48
2018-08-23T09:22:19.280Z,99645.14
2018-08-23T09:24:49.053Z,99648.17
2018-08-23T09:27:19.448Z,99644.24
2018-08-23T09:29:49.512Z,99637.59
2018-08-23T09:32:24.749Z,99635.33
2018-08-23T09:35:00.837Z,99635.50
2018-08-23T09:37:34.919Z,99620.02
2018-08-23T09:40:05.104Z,99619.20
2018-08-23T09:42:36.143Z,99619.52
2018-08-23T09:45:12.744Z,99609.42
2018-08-23T09:47:42.815Z,99608.81
2018-08-23T09:50:12.636Z,99610.27
2018-08-23T09:52:44.856Z,99609.00
2018-08-23T09:55:16.284Z,99611.06
2018-08-23T09:57:46.360Z,99602.50
2018-08-23T10:00:21.760Z,99604.39
2018-08-23T10:02:56.764Z,99600.91
2018-08-23T10:05:31.640Z,99603.00
2018-08-23T10:08:06.528Z,99596.70
2018-08-23T10:10:41.331Z,99595.27
2018-08-23T10:13:16.148Z,99591.44
2018-08-23T10:16:48.655Z,99592.23
2018-08-23T10:19:23.864Z,99589.81
2018-08-23T10:21:58.883Z,99579.18
2018-08-23T10:24:33.112Z,99577.62
2018-08-23T10:27:02.841Z,99583.60
2018-08-23T10:29:32.562Z,99573.45
2018-08-23T10:32:02.415Z,99570.95
2018-08-23T10:34:32.241Z,99572.97
2018-08-23T10:37:01.953Z,99572.51
2018-08-23T10:39:32.050Z,99573.02
2018-08-23T10:42:01.764Z,99575.33
2018-08-23T10:44:32.440Z,99570.55
2018-08-23T10:47:02.161Z,99567.86
2018-08-23T10:49:31.871Z,99564.94
2018-08-23T10:52:01.860Z,99571.02
2018-08-23T10:54:32.072Z,99568.54
2018-08-23T10:57:01.769Z,99560.22
2018-08-23T10:59:32.185Z,99564.63
2018-08-23T11:02:01.885Z,99553.31
2018-08-23T11:04:31.630Z,99557.50
2018-08-23T11:07:01.328Z,99557.25
2018-08-23T11:09:36.350Z,99554.78
2018-08-23T11:12:09.495Z,99542.50
2018-08-23T11:14:41.539Z,99542.06
2018-08-23T11:17:16.490Z,99547.22
2018-08-23T11:19:51.551Z,99544.27
2018-08-23T11:22:25.412Z,99542.01
2018-08-23T11:24:55.105Z,99535.91
2018-08-23T11:27:25.304Z,99543.70
2018-08-23T11:29:55.018Z,99541.38
2018-08-23T11:32:25.161Z,99538.91
2018-08-23T11:34:54.923Z,99534.19
2018-08-23T11:37:24.988Z,99528.77
2018-08-23T11:39:54.980Z,99528.42
2018-08-23T11:42:25.073Z,99519.27
2018-08-23T11:44:55.064Z,99511.48
2018-08-23T11:47:24.889Z,99512.55
2018-08-23T11:49:54.571Z,99519.78
2018-08-23T11:52:24.336Z,99512.95
2018-08-23T11:54:54.035Z,99511.69
2018-08-23T11:57:24.151Z,99503.19
2018-08-23T11:59:54.205Z,99493.65
2018-08-23T12:02:23.883Z,99490.00
2018-08-23T12:04:53.593Z,99493.02
2018-08-23T12:07:23.579Z,99493.20
2018-08-23T12:09:53.409Z,99498.30
2018-08-23T12:12:23.187Z,99488.39
2018-08-23T12:14:57.072Z,99485.22
2018-08-23T12:17:26.820Z,99487.21
2018-08-23T12:19:56.985Z,99482.74
2018-08-23T12:22:31.764Z,99478.62
2018-08-23T12:25:02.362Z,99483.88
2018-08-23T12:27:32.409Z,99475.69
2018-08-23T12:30:05.132Z,99473.19
2018-08-23T12:32:34.792Z,99469.61
2018-08-23T12:35:04.877Z,99477.14
2018-08-23T12:37:39.830Z,99475.27
2018-08-23T12:40:14.548Z,99475.66
2018-08-23T12:42:50.480Z,99474.89
2018-08-23T12:45:20.321Z,99473.76
2018-08-23T12:47:50.447Z,99464.48
2018-08-23T12:50:20.560Z,99463.64
2018-08-23T12:52:50.283Z,99457.30
2018-08-23T12:55:20.365Z,99450.25
2018-08-23T12:57:50.099Z,99450.41
2018-08-23T13:00:20.015Z,99441.15
2018-08-23T13:02:50.139Z,99438.16
2018-08-23T13:05:20.096Z,99436.88
2018-08-23T13:07:49.784Z,99442.77
2018-08-23T13:10:19.597Z,99427.45
2018-08-23T13:12:49.321Z,99426.38
2018-08-23T13:15:19.700Z,99434.12
2018-08-23T13:17:49.754Z,99433.21
2018-08-23T13:20:19.929Z,99424.27
2018-08-23T13:22:49.672Z,99423.50
2018-08-23T13:25:19.484Z,99419.20
2018-08-23T13:27:49.430Z,99417.72
2018-08-23T13:30:19.633Z,99418.62
2018-08-23T13:32:49.348Z,99414.35
2018-08-23T13:35:19.127Z,99410.74
2018-08-23T13:37:48.847Z,99415.05
2018-08-23T13:40:19.733Z,99406.48
2018-08-23T13:42:49.964Z,99395.73
2018-08-23T13:45:19.683Z,99399.33
2018-08-23T13:47:49.515Z,99392.88
2018-08-23T13:50:19.627Z,99391.14
2018-08-23T13:52:49.441Z,99392.78
2018-08-23T13:55:19.465Z,99396.21
2018-08-23T13:57:49.287Z,99391.23
2018-08-23T14:00:29.372Z,99395.57
2018-08-23T14:03:00.314Z,99395.48
2018-08-23T14:05:30.455Z,99378.52
2018-08-23T14:08:00.496Z,99378.94
2018-08-23T14:10:30.217Z,99377.94
2018-08-23T14:12:59.921Z,99373.11
2018-08-23T14:15:34.897Z,99377.63
2018-08-23T14:18:04.944Z,99376.94
2018-08-23T14:20:34.690Z,99366.89
2018-08-23T14:23:04.404Z,99361.02
2018-08-23T14:25:34.153Z,99368.93
2018-08-23T14:28:03.840Z,99366.36
2018-08-23T14:30:33.559Z,99364.55
2018-08-23T14:33:03.330Z,99369.87
2018-08-23T14:35:33.279Z,99369.69
2018-08-23T14:38:02.966Z,99365.46
2018-08-23T14:40:32.684Z,99362.91
2018-08-23T14:43:02.958Z,99354.97
2018-08-23T14:45:33.791Z,99361.53
2018-08-23T14:48:08.905Z,99351.59
2018-08-23T14:50:38.676Z,99349.73
2018-08-23T14:53:08.926Z,99346.36
2018-08-23T14:55:44.173Z,99344.63
2018-08-23T14:58:14.414Z,99343.69
2018-08-23T15:00:44.629Z,99345.17
2018-08-23T15:03:15.204Z,99332.43
2018-08-23T15:05:45.261Z,99339.80
2018-08-23T15:08:14.953Z,99335.39
2018-08-23T15:10:44.708Z,99333.33
2018-08-23T15:13:14.615Z,99332.13
2018-08-23T15:15:49.579Z,99330.66
2018-08-23T15:18:20.836Z,99325.44
2018-08-23T15:20:51.310Z,99328.25
2018-08-23T15:23:21.121Z,99323.36
2018-08-23T15:25:50.852Z,99322.16
2018-08-23T15:28:20.539Z,99325.60
2018-08-23T15:30:50.281Z,99318.41
2018-08-23T15:33:20.636Z,99323.39
2018-08-23T15:35:50.360Z,99326.05
2018-08-23T15:38:20.060Z,99327.80
2018-08-23T15:40:49.790Z,99323.36
2018-08-23T15:43:20.376Z,99327.27
2018-08-23T15:45:50.140Z,99327.32
2018-08-23T15:48:19.873Z,99328.75
2018-08-23T15:50:50.378Z,99325.27
2018-08-23T15:53:20.487Z,99325.83
2018-08-23T15:55:50.338Z,99328.31
2018-08-23T15:58:20.262Z,99325.88
2018-08-23T16:00:50.013Z,99327.27
2018-08-23T16:03:19.739Z,99326.51
2018-08-23T16:05:49.541Z,99327.91
2018-08-23T16:08:19.245Z,99334.26
2018-08-23T16:10:48.968Z,99325.81
2018-08-23T16:13:18.776Z,99318.39
2018-08-23T16:15:51.277Z,99322.19
2018-08-23T16:19:26.877Z,99325.30
2018-08-23T16:21:57.740Z,99320.88
2018-08-23T16:24:28.346Z,99318.33
2018-08-23T16:27:02.889Z,99311.88
2018-08-23T16:29:32.640Z,99309.80
2018-08-23T16:32:02.441Z,99318.91
2018-08-23T16:34:32.440Z,99307.30
2018-08-23T16:37:02.179Z,99307.97
2018-08-23T16:39:31.884Z,99305.04
2018-08-23T16:42:01.740Z,99296.06
2018-08-23T16:44:31.419Z,99299.48
2018-08-23T16:47:01.139Z,99300.90
2018-08-23T16:49:30.864Z,99299.69
2018-08-23T16:52:00.540Z,99297.55
2018-08-23T16:54:30.257Z,99295.36
2018-08-23T16:56:59.972Z,99300.08
2018-08-23T16:59:29.665Z,99298.58
2018-08-23T17:01:59.388Z,99290.90
2018-08-23T17:04:34.060Z,99298.93
2018-08-23T17:07:03.769Z,99297.91
2018-08-23T17:09:33.454Z,99306.39
2018-08-23T17:12:03.226Z,99295.84
2018-08-23T17:14:32.900Z,99302.56
2018-08-23T17:17:07.780Z,99305.12
2018-08-23T17:19:37.896Z,99299.65
2018-08-23T17:22:07.639Z,99302.47
2018-08-23T17:24:37.535Z,99298.98
2018-08-23T17:27:07.530Z,99293.02
2018-08-23T17:29:37.728Z,99296.91
2018-08-23T17:32:08.335Z,99298.85
2018-08-23T17:34:38.151Z,99297.10
2018-08-23T17:37:07.851Z,99302.94
2018-08-23T17:39:37.968Z,99308.83
2018-08-23T17:42:07.767Z,99305.56
2018-08-23T17:44:37.488Z,99310.64
2018-08-23T17:47:07.508Z,99304.36
2018-08-23T17:49:37.279Z,99312.11
2018-08-23T17:52:07.088Z,99306.71
2018-08-23T17:54:36.801Z,99307.52
2018-08-23T17:57:06.882Z,99307.09
2018-08-23T17:59:36.884Z,99309.13
2018-08-23T18:02:06.816Z,99301.82
2018-08-23T18:04:36.505Z,99304.57
2018-08-23T18:07:06.496Z,99307.97
2018-08-23T18:09:36.243Z,99308.89
2018-08-23T18:12:05.993Z,99315.48
2018-08-23T18:14:35.688Z,99306.77
2018-08-23T18:17:05.457Z,99307.62
2018-08-23T18:19:35.152Z,99304.92
2018-08-23T18:22:05.422Z,99305.22
2018-08-23T18:24:35.188Z,99304.39
2018-08-23T18:27:05.234Z,99308.00
2018-08-23T18:29:35.040Z,99303.95
2018-08-23T18:32:04.950Z,99304.80
2018-08-23T18:34:34.667Z,99305.72
2018-08-23T18:37:04.672Z,99307.66
2018-08-23T18:39:35.100Z,99302.20
2018-08-23T18:42:04.831Z,99300.07
2018-08-23T18:44:34.547Z,99303.66
2018-08-23T18:47:04.898Z,99303.95
2018-08-23T18:49:34.671Z,99309.22
2018-08-23T18:52:04.519Z,99319.44
2018-08-23T18:54:34.515Z,99321.69
2018-08-23T18:57:04.812Z,99321.14
2018-08-23T18:59:34.852Z,99331.25
2018-08-23T19:02:04.649Z,99334.58
2018-08-23T19:04:34.476Z,99327.42
2018-08-23T19:07:04.565Z,99332.09
2018-08-23T19:09:34.636Z,99343.87
2018-08-23T19:12:04.915Z,99335.09
2018-08-23T19:14:34.660Z,99338.95
2018-08-23T19:17:09.500Z,99339.75
2018-08-23T19:19:39.380Z,99343.05
2018-08-23T19:22:10.217Z,99340.05
2018-08-23T19:24:40.293Z,99336.18
2018-08-23T19:27:09.997Z,99334.00
2018-08-23T19:29:39.712Z,99335.55
2018-08-23T19:32:09.445Z,99340.20
2018-08-23T19:34:39.124Z,99334.17
2018-08-23T19:37:08.979Z,99338.02
2018-08-23T19:39:38.920Z,99339.08
2018-08-23T19:42:08.780Z,99334.97
2018-08-23T19:44:43.637Z,99339.05
2018-08-23T19:47:18.435Z,99340.13
2018-08-23T19:49:52.319Z,99342.05
2018-08-23T19:52:22.444Z,99329.42
2018-08-23T19:54:52.663Z,99327.97
2018-08-23T19:57:22.573Z,99328.71
2018-08-23T19:59:52.254Z,99331.03
2018-08-23T20:02:21.974Z,99326.29
2018-08-23T20:04:52.344Z,99335.23
2018-08-23T20:07:22.446Z,99335.75
2018-08-23T20:09:52.507Z,99334.89
2018-08-23T20:12:22.467Z,99337.42
2018-08-23T20:14:52.599Z,99342.52
2018-08-23T20:17:22.771Z,99334.55
2018-08-23T20:19:53.471Z,99339.46
2018-08-23T20:22:23.192Z,99339.19
2018-08-23T20:24:52.932Z,99336.21
2018-08-23T20:27:23.008Z,99337.10
2018-08-23T20:29:53.452Z,99335.16
2018-08-23T20:32:23.632Z,99332.50
2018-08-23T20:34:53.707Z,99336.84
2018-08-23T20:40:03.407Z,99328.64
2018-08-23T20:42:33.210Z,99335.77
2018-08-23T20:45:02.944Z,99331.06
2018-08-23T20:47:32.693Z,99328.92
2018-08-23T20:50:02.662Z,99334.97
2018-08-23T20:52:32.443Z,99338.72
2018-08-23T20:57:53.245Z,99330.73
2018-08-23T21:00:22.947Z,99329.09
2018-08-23T21:02:52.709Z,99334.27
2018-08-23T21:05:22.395Z,99333.42
2018-08-23T21:07:52.097Z,99328.41
2018-08-23T21:10:21.828Z,99326.28
2018-08-23T21:12:51.502Z,99331.42
2018-08-23T21:15:21.568Z,99330.42
2018-08-23T21:17:51.715Z,99330.42
2018-08-23T21:20:21.729Z,99337.75
2018-08-23T21:22:51.808Z,99336.63
2018-08-23T21:25:21.898Z,99342.23
2018-08-23T21:27:52.179Z,99338.36
2018-08-23T21:30:21.920Z,99335.41
2018-08-23T21:32:51.930Z,99342.17
2018-08-23T21:35:21.678Z,99338.36
2018-08-23T21:37:51.378Z,99340.28
2018-08-23T21:40:21.453Z,99347.15
2018-08-23T21:42:51.540Z,99349.28
2018-08-23T21:45:21.344Z,99336.87
2018-08-23T21:47:51.034Z,99337.10
2018-08-23T21:50:21.154Z,99338.41
2018-08-23T21:52:51.530Z,99338.68
2018-08-23T21:55:25.539Z,99337.89
2018-08-23T21:57:55.467Z,99336.77
2018-08-23T22:00:25.152Z,99338.97
2018-08-23T22:02:54.900Z,99338.40
2018-08-23T22:05:24.987Z,99341.36
2018-08-23T22:07:54.748Z,99331.31
2018-08-23T22:10:24.760Z,99330.76
2018-08-23T22:12:54.516Z,99335.41
2018-08-23T22:15:24.299Z,99336.70
2018-08-23T22:17:53.933Z,99347.30
2018-08-23T22:20:23.674Z,99343.67
2018-08-23T22:22:53.377Z,99336.25
2018-08-23T22:25:23.113Z,99335.38
2018-08-23T22:27:52.819Z,99331.52
2018-08-23T22:30:22.533Z,99352.06
2018-08-23T22:32:52.235Z,99351.42
2018-08-23T22:35:21.984Z,99339.15
2018-08-23T22:37:51.699Z,99330.56
2018-08-23T22:40:21.445Z,99327.81
2018-08-23T22:42:51.175Z,99326.09
2018-08-23T22:45:20.921Z,99316.95
2018-08-23T22:47:50.648Z,99304.20
2018-08-23T22:50:20.368Z,99297.35
2018-08-23T22:52:50.309Z,99299.20
2018-08-23T22:55:20.413Z,99304.69
2018-08-23T22:57:50.161Z,99311.18
2018-08-23T23:00:24.294Z,99312.52
2018-08-23T23:02:54.036Z,99314.45
2018-08-23T23:05:23.839Z,99319.62
2018-08-23T23:07:54.052Z,99302.52
2018-08-23T23:10:23.748Z,99292.06
2018-08-23T23:12:53.425Z,99305.92
2018-08-23T23:15:26.348Z,99317.02
2018-08-23T23:17:56.038Z,99311.94
2018-08-23T23:20:26.433Z,99302.66
2018-08-23T23:22:56.504Z,99304.14
2018-08-23T23:25:26.983Z,99306.41
2018-08-23T23:27:57.467Z,99320.00
2018-08-23T23:30:27.229Z,99312.09
2018-08-23T23:32:57.259Z,99313.50
2018-08-23T23:35:27.360Z,99308.77
2018-08-23T23:37:57.090Z,99318.13
2018-08-23T23:40:26.779Z,99312.86
2018-08-23T23:42:56.535Z,99314.37
2018-08-23T23:45:26.220Z,99316.30
2018-08-23T23:47:56.435Z,99317.88
2018-08-23T23:50:26.423Z,99315.58
2018-08-23T23:52:56.525Z,99318.77
2018-08-23T23:55:26.234Z,99313.59
2018-08-23T23:57:55.948Z,99313.91
